sensor_id;sensor_type;location;lat;lon;timestamp;P1;durP1;ratioP1;P2;durP2;ratioP2
70899;SDS011;67902;52.154;5.430;2023-02-28T00:00:52;12.52;;;3.80;;
70899;SDS011;67902;52.154;5.430;2023-02-28T00:03:19;10.05;;;3.25;;
70899;SDS011;67902;52.154;5.430;2023-02-28T00:05:45;10.50;;;3.33;;
70899;SDS011;67902;52.154;5.430;2023-02-28T00:08:12;9.77;;;3.60;;
70899;SDS011;67902;52.154;5.430;2023-02-28T00:10:39;9.15;;;3.30;;
70899;SDS011;67902;52.154;5.430;2023-02-28T00:13:05;8.32;;;2.78;;
70899;SDS011;67902;52.154;5.430;2023-02-28T00:15:32;8.23;;;3.53;;
70899;SDS011;67902;52.154;5.430;2023-02-28T00:17:59;9.75;;;2.72;;
70899;SDS011;67902;52.154;5.430;2023-02-28T00:20:26;8.50;;;2.80;;
70899;SDS011;67902;52.154;5.430;2023-02-28T00:22:53;8.57;;;3.00;;
70899;SDS011;67902;52.154;5.430;2023-02-28T00:25:23;10.98;;;2.95;;
70899;SDS011;67902;52.154;5.430;2023-02-28T00:27:51;8.40;;;2.70;;
70899;SDS011;67902;52.154;5.430;2023-02-28T00:30:18;10.18;;;3.50;;
70899;SDS011;67902;52.154;5.430;2023-02-28T00:32:49;10.23;;;2.97;;
70899;SDS011;67902;52.154;5.430;2023-02-28T00:35:16;10.25;;;3.25;;
70899;SDS011;67902;52.154;5.430;2023-02-28T00:37:43;8.65;;;2.88;;
70899;SDS011;67902;52.154;5.430;2023-02-28T00:40:10;10.80;;;3.00;;
70899;SDS011;67902;52.154;5.430;2023-02-28T00:42:38;8.48;;;2.67;;
70899;SDS011;67902;52.154;5.430;2023-02-28T00:45:05;8.40;;;2.83;;
70899;SDS011;67902;52.154;5.430;2023-02-28T00:47:33;12.40;;;2.85;;
70899;SDS011;67902;52.154;5.430;2023-02-28T00:49:59;11.45;;;3.45;;
70899;SDS011;67902;52.154;5.430;2023-02-28T00:52:26;11.20;;;2.83;;
70899;SDS011;67902;52.154;5.430;2023-02-28T00:54:53;10.88;;;2.70;;
70899;SDS011;67902;52.154;5.430;2023-02-28T00:57:19;7.25;;;2.63;;
70899;SDS011;67902;52.154;5.430;2023-02-28T00:59:46;8.10;;;3.08;;
70899;SDS011;67902;52.154;5.430;2023-02-28T01:02:12;10.30;;;3.22;;
70899;SDS011;67902;52.154;5.430;2023-02-28T01:04:39;11.48;;;2.75;;
70899;SDS011;67902;52.154;5.430;2023-02-28T01:07:05;6.95;;;2.85;;
70899;SDS011;67902;52.154;5.430;2023-02-28T01:09:32;9.57;;;2.85;;
70899;SDS011;67902;52.154;5.430;2023-02-28T01:11:59;10.40;;;3.42;;
70899;SDS011;67902;52.154;5.430;2023-02-28T01:14:25;9.13;;;2.90;;
70899;SDS011;67902;52.154;5.430;2023-02-28T01:16:51;11.15;;;3.00;;
70899;SDS011;67902;52.154;5.430;2023-02-28T01:19:18;10.23;;;2.97;;
70899;SDS011;67902;52.154;5.430;2023-02-28T01:21:44;6.53;;;2.78;;
70899;SDS011;67902;52.154;5.430;2023-02-28T01:24:11;7.97;;;3.47;;
70899;SDS011;67902;52.154;5.430;2023-02-28T01:26:38;7.45;;;3.25;;
70899;SDS011;67902;52.154;5.430;2023-02-28T01:29:05;8.43;;;2.78;;
70899;SDS011;67902;52.154;5.430;2023-02-28T01:31:31;10.07;;;3.50;;
70899;SDS011;67902;52.154;5.430;2023-02-28T01:33:58;7.07;;;2.55;;
70899;SDS011;67902;52.154;5.430;2023-02-28T01:36:25;7.97;;;2.88;;
70899;SDS011;67902;52.154;5.430;2023-02-28T01:38:51;9.05;;;2.65;;
70899;SDS011;67902;52.154;5.430;2023-02-28T01:41:23;7.40;;;3.00;;
70899;SDS011;67902;52.154;5.430;2023-02-28T01:43:52;9.02;;;3.15;;
70899;SDS011;67902;52.154;5.430;2023-02-28T01:46:22;7.45;;;3.20;;
70899;SDS011;67902;52.154;5.430;2023-02-28T01:49:00;8.10;;;2.85;;
70899;SDS011;67902;52.154;5.430;2023-02-28T01:51:37;9.20;;;2.42;;
70899;SDS011;67902;52.154;5.430;2023-02-28T01:54:12;12.57;;;2.75;;
70899;SDS011;67902;52.154;5.430;2023-02-28T01:56:50;10.52;;;3.30;;
70899;SDS011;67902;52.154;5.430;2023-02-28T01:59:22;9.77;;;3.42;;
70899;SDS011;67902;52.154;5.430;2023-02-28T02:01:53;8.73;;;2.90;;
70899;SDS011;67902;52.154;5.430;2023-02-28T02:04:20;7.80;;;2.95;;
70899;SDS011;67902;52.154;5.430;2023-02-28T02:06:52;8.48;;;3.25;;
70899;SDS011;67902;52.154;5.430;2023-02-28T02:09:18;7.88;;;2.80;;
70899;SDS011;67902;52.154;5.430;2023-02-28T02:11:45;8.15;;;2.90;;
70899;SDS011;67902;52.154;5.430;2023-02-28T02:22:46;6.45;;;2.40;;
70899;SDS011;67902;52.154;5.430;2023-02-28T02:28:22;8.88;;;2.67;;
70899;SDS011;67902;52.154;5.430;2023-02-28T02:37:08;8.82;;;3.25;;
70899;SDS011;67902;52.154;5.430;2023-02-28T02:39:50;9.25;;;2.80;;
70899;SDS011;67902;52.154;5.430;2023-02-28T02:42:33;9.43;;;3.00;;
70899;SDS011;67902;52.154;5.430;2023-02-28T02:45:11;10.02;;;3.22;;
70899;SDS011;67902;52.154;5.430;2023-02-28T02:47:44;9.40;;;2.90;;
70899;SDS011;67902;52.154;5.430;2023-02-28T02:50:17;12.75;;;3.47;;
70899;SDS011;67902;52.154;5.430;2023-02-28T02:52:56;8.32;;;2.83;;
70899;SDS011;67902;52.154;5.430;2023-02-28T02:55:26;10.45;;;3.45;;
70899;SDS011;67902;52.154;5.430;2023-02-28T02:57:54;9.70;;;3.05;;
70899;SDS011;67902;52.154;5.430;2023-02-28T03:00:27;8.05;;;3.30;;
70899;SDS011;67902;52.154;5.430;2023-02-28T03:02:59;12.05;;;3.58;;
70899;SDS011;67902;52.154;5.430;2023-02-28T03:05:29;9.23;;;3.20;;
70899;SDS011;67902;52.154;5.430;2023-02-28T03:08:04;8.23;;;2.70;;
70899;SDS011;67902;52.154;5.430;2023-02-28T03:13:22;9.73;;;3.10;;
70899;SDS011;67902;52.154;5.430;2023-02-28T03:16:05;10.75;;;3.13;;
70899;SDS011;67902;52.154;5.430;2023-02-28T03:18:47;15.05;;;3.42;;
70899;SDS011;67902;52.154;5.430;2023-02-28T03:21:29;9.68;;;2.78;;
70899;SDS011;67902;52.154;5.430;2023-02-28T03:24:18;7.82;;;2.70;;
70899;SDS011;67902;52.154;5.430;2023-02-28T03:26:58;11.15;;;3.08;;
70899;SDS011;67902;52.154;5.430;2023-02-28T03:29:33;7.72;;;3.03;;
70899;SDS011;67902;52.154;5.430;2023-02-28T03:32:05;11.98;;;3.47;;
70899;SDS011;67902;52.154;5.430;2023-02-28T03:34:41;8.27;;;2.80;;
70899;SDS011;67902;52.154;5.430;2023-02-28T03:37:16;10.60;;;3.45;;
70899;SDS011;67902;52.154;5.430;2023-02-28T03:39:49;8.68;;;3.25;;
70899;SDS011;67902;52.154;5.430;2023-02-28T03:42:25;14.77;;;3.60;;
70899;SDS011;67902;52.154;5.430;2023-02-28T03:44:59;9.45;;;3.22;;
70899;SDS011;67902;52.154;5.430;2023-02-28T03:48:12;11.85;;;3.60;;
70899;SDS011;67902;52.154;5.430;2023-02-28T03:53:12;10.68;;;3.53;;
70899;SDS011;67902;52.154;5.430;2023-02-28T03:55:45;9.15;;;3.22;;
70899;SDS011;67902;52.154;5.430;2023-02-28T04:01:38;8.30;;;3.28;;
70899;SDS011;67902;52.154;5.430;2023-02-28T04:04:10;9.05;;;3.53;;
70899;SDS011;67902;52.154;5.430;2023-02-28T04:06:38;7.90;;;3.22;;
70899;SDS011;67902;52.154;5.430;2023-02-28T04:09:06;11.38;;;3.78;;
70899;SDS011;67902;52.154;5.430;2023-02-28T04:14:11;9.57;;;3.35;;
70899;SDS011;67902;52.154;5.430;2023-02-28T04:16:39;11.10;;;3.72;;
70899;SDS011;67902;52.154;5.430;2023-02-28T04:19:07;8.43;;;3.00;;
70899;SDS011;67902;52.154;5.430;2023-02-28T04:21:36;8.75;;;2.95;;
70899;SDS011;67902;52.154;5.430;2023-02-28T04:24:08;7.15;;;2.88;;
70899;SDS011;67902;52.154;5.430;2023-02-28T04:26:41;6.40;;;2.58;;
70899;SDS011;67902;52.154;5.430;2023-02-28T04:29:10;8.52;;;2.80;;
70899;SDS011;67902;52.154;5.430;2023-02-28T04:34:04;6.78;;;2.25;;
70899;SDS011;67902;52.154;5.430;2023-02-28T04:36:31;7.18;;;2.42;;
70899;SDS011;67902;52.154;5.430;2023-02-28T04:38:57;7.50;;;2.47;;
70899;SDS011;67902;52.154;5.430;2023-02-28T04:41:24;9.30;;;2.53;;
70899;SDS011;67902;52.154;5.430;2023-02-28T04:43:51;8.52;;;2.67;;
70899;SDS011;67902;52.154;5.430;2023-02-28T04:48:45;10.63;;;3.00;;
70899;SDS011;67902;52.154;5.430;2023-02-28T04:51:13;7.47;;;2.75;;
70899;SDS011;67902;52.154;5.430;2023-02-28T04:53:41;7.50;;;2.30;;
70899;SDS011;67902;52.154;5.430;2023-02-28T04:56:10;6.63;;;2.53;;
70899;SDS011;67902;52.154;5.430;2023-02-28T04:58:39;7.15;;;2.72;;
70899;SDS011;67902;52.154;5.430;2023-02-28T05:01:19;10.18;;;3.00;;
70899;SDS011;67902;52.154;5.430;2023-02-28T05:03:51;9.10;;;2.85;;
70899;SDS011;67902;52.154;5.430;2023-02-28T05:08:46;6.38;;;2.22;;
70899;SDS011;67902;52.154;5.430;2023-02-28T05:11:14;8.35;;;2.35;;
70899;SDS011;67902;52.154;5.430;2023-02-28T05:13:46;7.10;;;2.53;;
70899;SDS011;67902;52.154;5.430;2023-02-28T05:16:13;6.57;;;2.42;;
70899;SDS011;67902;52.154;5.430;2023-02-28T05:18:40;6.82;;;2.53;;
70899;SDS011;67902;52.154;5.430;2023-02-28T05:21:16;7.15;;;2.53;;
70899;SDS011;67902;52.154;5.430;2023-02-28T05:23:50;7.43;;;2.42;;
70899;SDS011;67902;52.154;5.430;2023-02-28T05:26:17;7.55;;;2.90;;
70899;SDS011;67902;52.154;5.430;2023-02-28T05:28:44;7.45;;;2.38;;
70899;SDS011;67902;52.154;5.430;2023-02-28T05:31:10;6.00;;;2.40;;
70899;SDS011;67902;52.154;5.430;2023-02-28T05:33:37;8.43;;;2.38;;
70899;SDS011;67902;52.154;5.430;2023-02-28T05:36:03;9.63;;;2.40;;
70899;SDS011;67902;52.154;5.430;2023-02-28T05:38:30;6.38;;;2.58;;
70899;SDS011;67902;52.154;5.430;2023-02-28T05:40:57;6.90;;;2.38;;
70899;SDS011;67902;52.154;5.430;2023-02-28T05:43:23;7.68;;;2.60;;
70899;SDS011;67902;52.154;5.430;2023-02-28T05:45:49;5.70;;;2.60;;
70899;SDS011;67902;52.154;5.430;2023-02-28T05:48:16;7.78;;;2.97;;
70899;SDS011;67902;52.154;5.430;2023-02-28T05:50:44;6.75;;;2.67;;
70899;SDS011;67902;52.154;5.430;2023-02-28T05:53:12;6.70;;;2.38;;
70899;SDS011;67902;52.154;5.430;2023-02-28T05:55:38;7.50;;;2.72;;
70899;SDS011;67902;52.154;5.430;2023-02-28T05:58:07;7.00;;;2.50;;
70899;SDS011;67902;52.154;5.430;2023-02-28T06:00:33;7.60;;;2.58;;
70899;SDS011;67902;52.154;5.430;2023-02-28T06:03:00;6.85;;;2.67;;
70899;SDS011;67902;52.154;5.430;2023-02-28T06:05:28;7.35;;;2.35;;
70899;SDS011;67902;52.154;5.430;2023-02-28T06:07:54;7.13;;;2.33;;
70899;SDS011;67902;52.154;5.430;2023-02-28T06:10:21;8.20;;;2.85;;
70899;SDS011;67902;52.154;5.430;2023-02-28T06:12:47;8.80;;;2.97;;
70899;SDS011;67902;52.154;5.430;2023-02-28T06:15:14;7.05;;;2.58;;
70899;SDS011;67902;52.154;5.430;2023-02-28T06:17:41;7.35;;;2.92;;
70899;SDS011;67902;52.154;5.430;2023-02-28T06:20:09;7.40;;;2.83;;
70899;SDS011;67902;52.154;5.430;2023-02-28T06:22:39;8.93;;;3.10;;
70899;SDS011;67902;52.154;5.430;2023-02-28T06:25:06;7.43;;;3.22;;
70899;SDS011;67902;52.154;5.430;2023-02-28T06:27:33;7.28;;;3.00;;
70899;SDS011;67902;52.154;5.430;2023-02-28T06:30:00;8.90;;;2.97;;
70899;SDS011;67902;52.154;5.430;2023-02-28T06:32:26;10.10;;;2.90;;
70899;SDS011;67902;52.154;5.430;2023-02-28T06:34:53;8.60;;;3.13;;
70899;SDS011;67902;52.154;5.430;2023-02-28T06:37:21;7.13;;;3.03;;
70899;SDS011;67902;52.154;5.430;2023-02-28T06:39:48;6.57;;;2.75;;
70899;SDS011;67902;52.154;5.430;2023-02-28T06:42:14;7.80;;;2.95;;
70899;SDS011;67902;52.154;5.430;2023-02-28T06:44:41;9.95;;;3.15;;
70899;SDS011;67902;52.154;5.430;2023-02-28T06:47:09;7.80;;;3.05;;
70899;SDS011;67902;52.154;5.430;2023-02-28T06:49:35;8.75;;;3.58;;
70899;SDS011;67902;52.154;5.430;2023-02-28T06:52:02;7.97;;;3.47;;
70899;SDS011;67902;52.154;5.430;2023-02-28T06:54:28;9.65;;;2.85;;
70899;SDS011;67902;52.154;5.430;2023-02-28T06:56:55;11.52;;;3.03;;
70899;SDS011;67902;52.154;5.430;2023-02-28T06:59:24;8.05;;;3.15;;
70899;SDS011;67902;52.154;5.430;2023-02-28T07:01:50;11.57;;;3.75;;
70899;SDS011;67902;52.154;5.430;2023-02-28T07:04:17;8.15;;;3.10;;
70899;SDS011;67902;52.154;5.430;2023-02-28T07:06:43;8.93;;;3.25;;
70899;SDS011;67902;52.154;5.430;2023-02-28T07:09:10;10.82;;;3.90;;
70899;SDS011;67902;52.154;5.430;2023-02-28T07:11:37;9.00;;;3.25;;
70899;SDS011;67902;52.154;5.430;2023-02-28T07:14:03;6.97;;;3.03;;
70899;SDS011;67902;52.154;5.430;2023-02-28T07:16:30;9.95;;;3.55;;
70899;SDS011;67902;52.154;5.430;2023-02-28T07:18:56;8.60;;;3.35;;
70899;SDS011;67902;52.154;5.430;2023-02-28T07:21:22;9.02;;;3.35;;
70899;SDS011;67902;52.154;5.430;2023-02-28T07:23:49;8.73;;;3.63;;
70899;SDS011;67902;52.154;5.430;2023-02-28T07:26:16;8.20;;;3.08;;
70899;SDS011;67902;52.154;5.430;2023-02-28T07:31:12;9.43;;;3.45;;
70899;SDS011;67902;52.154;5.430;2023-02-28T07:33:41;10.68;;;3.47;;
70899;SDS011;67902;52.154;5.430;2023-02-28T07:36:13;8.43;;;3.50;;
70899;SDS011;67902;52.154;5.430;2023-02-28T07:38:41;10.90;;;3.63;;
70899;SDS011;67902;52.154;5.430;2023-02-28T07:41:12;10.60;;;3.60;;
70899;SDS011;67902;52.154;5.430;2023-02-28T07:43:39;9.45;;;3.80;;
70899;SDS011;67902;52.154;5.430;2023-02-28T07:46:07;11.48;;;3.33;;
70899;SDS011;67902;52.154;5.430;2023-02-28T07:48:35;9.63;;;3.78;;
70899;SDS011;67902;52.154;5.430;2023-02-28T07:51:02;12.02;;;3.83;;
70899;SDS011;67902;52.154;5.430;2023-02-28T07:53:29;8.32;;;3.45;;
70899;SDS011;67902;52.154;5.430;2023-02-28T07:55:56;8.80;;;3.53;;
70899;SDS011;67902;52.154;5.430;2023-02-28T07:58:24;9.95;;;3.38;;
70899;SDS011;67902;52.154;5.430;2023-02-28T08:00:51;7.63;;;3.55;;
70899;SDS011;67902;52.154;5.430;2023-02-28T08:03:19;13.15;;;4.55;;
70899;SDS011;67902;52.154;5.430;2023-02-28T08:05:47;9.80;;;4.40;;
70899;SDS011;67902;52.154;5.430;2023-02-28T08:08:15;9.55;;;3.88;;
70899;SDS011;67902;52.154;5.430;2023-02-28T08:10:44;9.45;;;3.90;;
70899;SDS011;67902;52.154;5.430;2023-02-28T08:13:11;11.52;;;4.70;;
70899;SDS011;67902;52.154;5.430;2023-02-28T08:15:37;10.27;;;3.70;;
70899;SDS011;67902;52.154;5.430;2023-02-28T08:18:04;11.18;;;3.90;;
70899;SDS011;67902;52.154;5.430;2023-02-28T08:20:30;11.07;;;4.97;;
70899;SDS011;67902;52.154;5.430;2023-02-28T08:22:57;9.98;;;4.05;;
70899;SDS011;67902;52.154;5.430;2023-02-28T08:25:23;9.38;;;4.03;;
70899;SDS011;67902;52.154;5.430;2023-02-28T08:27:50;9.50;;;4.30;;
70899;SDS011;67902;52.154;5.430;2023-02-28T08:30:19;8.95;;;4.22;;
70899;SDS011;67902;52.154;5.430;2023-02-28T08:32:46;8.30;;;3.50;;
70899;SDS011;67902;52.154;5.430;2023-02-28T08:35:12;9.88;;;4.18;;
70899;SDS011;67902;52.154;5.430;2023-02-28T08:37:39;8.98;;;3.70;;
70899;SDS011;67902;52.154;5.430;2023-02-28T08:40:05;7.82;;;3.58;;
70899;SDS011;67902;52.154;5.430;2023-02-28T08:42:32;9.52;;;3.58;;
70899;SDS011;67902;52.154;5.430;2023-02-28T08:44:59;9.25;;;3.67;;
70899;SDS011;67902;52.154;5.430;2023-02-28T08:47:25;7.45;;;3.22;;
70899;SDS011;67902;52.154;5.430;2023-02-28T08:49:52;8.55;;;3.38;;
70899;SDS011;67902;52.154;5.430;2023-02-28T08:52:19;7.72;;;2.90;;
70899;SDS011;67902;52.154;5.430;2023-02-28T08:54:45;7.68;;;2.72;;
70899;SDS011;67902;52.154;5.430;2023-02-28T08:57:11;13.95;;;5.30;;
70899;SDS011;67902;52.154;5.430;2023-02-28T08:59:38;10.07;;;3.65;;
70899;SDS011;67902;52.154;5.430;2023-02-28T09:02:04;7.25;;;3.03;;
70899;SDS011;67902;52.154;5.430;2023-02-28T09:04:31;6.75;;;2.95;;
70899;SDS011;67902;52.154;5.430;2023-02-28T09:06:57;6.60;;;2.47;;
70899;SDS011;67902;52.154;5.430;2023-02-28T09:09:24;7.55;;;2.60;;
70899;SDS011;67902;52.154;5.430;2023-02-28T09:11:50;7.60;;;3.00;;
70899;SDS011;67902;52.154;5.430;2023-02-28T09:14:16;7.97;;;2.80;;
70899;SDS011;67902;52.154;5.430;2023-02-28T09:16:43;9.80;;;2.50;;
70899;SDS011;67902;52.154;5.430;2023-02-28T09:19:10;7.50;;;2.10;;
70899;SDS011;67902;52.154;5.430;2023-02-28T09:21:38;7.68;;;2.22;;
70899;SDS011;67902;52.154;5.430;2023-02-28T09:24:04;6.30;;;2.28;;
70899;SDS011;67902;52.154;5.430;2023-02-28T09:26:31;5.80;;;1.90;;
70899;SDS011;67902;52.154;5.430;2023-02-28T09:29:14;6.82;;;1.80;;
70899;SDS011;67902;52.154;5.430;2023-02-28T09:31:42;4.38;;;1.55;;
70899;SDS011;67902;52.154;5.430;2023-02-28T09:34:09;6.05;;;1.70;;
70899;SDS011;67902;52.154;5.430;2023-02-28T09:36:36;4.65;;;1.63;;
70899;SDS011;67902;52.154;5.430;2023-02-28T09:39:12;7.38;;;1.65;;
70899;SDS011;67902;52.154;5.430;2023-02-28T09:41:43;4.78;;;1.50;;
70899;SDS011;67902;52.154;5.430;2023-02-28T09:44:24;5.20;;;1.60;;
70899;SDS011;67902;52.154;5.430;2023-02-28T09:47:07;4.50;;;1.45;;
70899;SDS011;67902;52.154;5.430;2023-02-28T09:49:42;6.25;;;1.52;;
70899;SDS011;67902;52.154;5.430;2023-02-28T09:52:19;4.55;;;1.38;;
70899;SDS011;67902;52.154;5.430;2023-02-28T09:54:50;4.60;;;1.50;;
70899;SDS011;67902;52.154;5.430;2023-02-28T09:57:19;5.15;;;1.40;;
70899;SDS011;67902;52.154;5.430;2023-02-28T10:00:02;4.53;;;1.50;;
70899;SDS011;67902;52.154;5.430;2023-02-28T10:05:47;4.28;;;1.48;;
70899;SDS011;67902;52.154;5.430;2023-02-28T10:08:21;4.80;;;1.50;;
70899;SDS011;67902;52.154;5.430;2023-02-28T10:11:00;5.40;;;1.67;;
70899;SDS011;67902;52.154;5.430;2023-02-28T10:13:37;4.35;;;1.55;;
70899;SDS011;67902;52.154;5.430;2023-02-28T10:16:14;5.32;;;1.73;;
70899;SDS011;67902;52.154;5.430;2023-02-28T10:18:59;9.05;;;1.80;;
70899;SDS011;67902;52.154;5.430;2023-02-28T10:21:35;6.55;;;1.60;;
70899;SDS011;67902;52.154;5.430;2023-02-28T10:26:49;4.80;;;1.55;;
70899;SDS011;67902;52.154;5.430;2023-02-28T10:29:22;5.72;;;1.90;;
70899;SDS011;67902;52.154;5.430;2023-02-28T10:31:48;4.60;;;1.42;;
70899;SDS011;67902;52.154;5.430;2023-02-28T10:34:15;5.03;;;1.63;;
70899;SDS011;67902;52.154;5.430;2023-02-28T10:36:41;4.55;;;1.45;;
70899;SDS011;67902;52.154;5.430;2023-02-28T10:42:04;6.60;;;1.60;;
70899;SDS011;67902;52.154;5.430;2023-02-28T10:44:44;4.28;;;1.60;;
70899;SDS011;67902;52.154;5.430;2023-02-28T10:47:16;4.88;;;1.42;;
70899;SDS011;67902;52.154;5.430;2023-02-28T10:49:48;4.25;;;1.60;;
70899;SDS011;67902;52.154;5.430;2023-02-28T10:52:37;5.63;;;1.50;;
70899;SDS011;67902;52.154;5.430;2023-02-28T10:55:19;5.30;;;1.63;;
70899;SDS011;67902;52.154;5.430;2023-02-28T10:57:51;5.13;;;1.88;;
70899;SDS011;67902;52.154;5.430;2023-02-28T11:00:22;4.63;;;1.55;;
70899;SDS011;67902;52.154;5.430;2023-02-28T11:02:51;4.63;;;1.70;;
70899;SDS011;67902;52.154;5.430;2023-02-28T11:05:28;4.93;;;1.75;;
70899;SDS011;67902;52.154;5.430;2023-02-28T11:08:00;9.02;;;1.95;;
70899;SDS011;67902;52.154;5.430;2023-02-28T11:10:55;6.75;;;1.70;;
70899;SDS011;67902;52.154;5.430;2023-02-28T11:13:31;4.40;;;1.60;;
70899;SDS011;67902;52.154;5.430;2023-02-28T11:16:03;5.38;;;1.90;;
70899;SDS011;67902;52.154;5.430;2023-02-28T11:21:25;4.80;;;1.77;;
70899;SDS011;67902;52.154;5.430;2023-02-28T11:24:00;6.07;;;1.50;;
70899;SDS011;67902;52.154;5.430;2023-02-28T11:26:37;5.65;;;2.05;;
70899;SDS011;67902;52.154;5.430;2023-02-28T11:29:10;4.53;;;1.70;;
70899;SDS011;67902;52.154;5.430;2023-02-28T11:31:42;4.75;;;1.52;;
70899;SDS011;67902;52.154;5.430;2023-02-28T11:34:30;5.28;;;2.03;;
70899;SDS011;67902;52.154;5.430;2023-02-28T11:36:56;6.05;;;1.80;;
70899;SDS011;67902;52.154;5.430;2023-02-28T11:39:24;5.00;;;1.70;;
70899;SDS011;67902;52.154;5.430;2023-02-28T11:47:47;4.07;;;1.50;;
70899;SDS011;67902;52.154;5.430;2023-02-28T11:55:45;5.40;;;1.92;;
70899;SDS011;67902;52.154;5.430;2023-02-28T12:01:09;4.90;;;1.75;;
70899;SDS011;67902;52.154;5.430;2023-02-28T12:03:44;6.70;;;1.92;;
70899;SDS011;67902;52.154;5.430;2023-02-28T12:12:27;5.15;;;1.50;;
70899;SDS011;67902;52.154;5.430;2023-02-28T12:18:05;5.13;;;1.88;;
70899;SDS011;67902;52.154;5.430;2023-02-28T12:23:52;3.85;;;1.40;;
70899;SDS011;67902;52.154;5.430;2023-02-28T12:26:49;5.00;;;1.60;;
70899;SDS011;67902;52.154;5.430;2023-02-28T12:29:19;5.35;;;1.60;;
70899;SDS011;67902;52.154;5.430;2023-02-28T12:32:05;4.70;;;1.50;;
70899;SDS011;67902;52.154;5.430;2023-02-28T12:34:37;5.70;;;1.67;;
70899;SDS011;67902;52.154;5.430;2023-02-28T12:37:15;5.32;;;1.70;;
70899;SDS011;67902;52.154;5.430;2023-02-28T12:39:48;5.50;;;1.65;;
70899;SDS011;67902;52.154;5.430;2023-02-28T12:42:26;5.80;;;1.65;;
70899;SDS011;67902;52.154;5.430;2023-02-28T12:45:01;6.50;;;1.70;;
70899;SDS011;67902;52.154;5.430;2023-02-28T12:47:31;4.93;;;1.83;;
70899;SDS011;67902;52.154;5.430;2023-02-28T12:50:05;5.60;;;1.67;;
70899;SDS011;67902;52.154;5.430;2023-02-28T12:57:36;5.22;;;1.80;;
70899;SDS011;67902;52.154;5.430;2023-02-28T13:00:13;5.45;;;1.92;;
70899;SDS011;67902;52.154;5.430;2023-02-28T13:08:20;5.32;;;2.15;;
70899;SDS011;67902;52.154;5.430;2023-02-28T13:11:33;5.10;;;1.80;;
70899;SDS011;67902;52.154;5.430;2023-02-28T13:14:20;5.35;;;1.85;;
70899;SDS011;67902;52.154;5.430;2023-02-28T13:22:41;5.70;;;2.10;;
70899;SDS011;67902;52.154;5.430;2023-02-28T13:27:56;6.40;;;2.25;;
70899;SDS011;67902;52.154;5.430;2023-02-28T13:33:30;5.85;;;1.98;;
70899;SDS011;67902;52.154;5.430;2023-02-28T13:36:32;4.93;;;2.03;;
70899;SDS011;67902;52.154;5.430;2023-02-28T13:39:02;5.70;;;2.08;;
70899;SDS011;67902;52.154;5.430;2023-02-28T13:41:49;5.88;;;2.05;;
70899;SDS011;67902;52.154;5.430;2023-02-28T13:44:16;5.03;;;2.00;;
70899;SDS011;67902;52.154;5.430;2023-02-28T13:49:20;5.03;;;2.10;;
70899;SDS011;67902;52.154;5.430;2023-02-28T13:57:34;6.43;;;2.05;;
70899;SDS011;67902;52.154;5.430;2023-02-28T14:02:53;4.90;;;1.92;;
70899;SDS011;67902;52.154;5.430;2023-02-28T14:05:25;4.72;;;2.00;;
70899;SDS011;67902;52.154;5.430;2023-02-28T14:07:53;5.30;;;2.25;;
70899;SDS011;67902;52.154;5.430;2023-02-28T14:10:30;6.47;;;2.20;;
70899;SDS011;67902;52.154;5.430;2023-02-28T14:13:36;6.00;;;2.08;;
70899;SDS011;67902;52.154;5.430;2023-02-28T14:16:15;5.80;;;2.13;;
70899;SDS011;67902;52.154;5.430;2023-02-28T14:18:51;5.13;;;2.03;;
70899;SDS011;67902;52.154;5.430;2023-02-28T14:21:34;5.40;;;2.38;;
70899;SDS011;67902;52.154;5.430;2023-02-28T14:24:21;6.45;;;2.60;;
70899;SDS011;67902;52.154;5.430;2023-02-28T14:27:11;4.70;;;1.88;;
70899;SDS011;67902;52.154;5.430;2023-02-28T14:32:41;6.75;;;2.65;;
70899;SDS011;67902;52.154;5.430;2023-02-28T14:35:18;5.82;;;2.47;;
70899;SDS011;67902;52.154;5.430;2023-02-28T14:37:54;5.40;;;2.30;;
70899;SDS011;67902;52.154;5.430;2023-02-28T14:40:22;5.35;;;2.38;;
70899;SDS011;67902;52.154;5.430;2023-02-28T14:42:57;5.13;;;2.03;;
70899;SDS011;67902;52.154;5.430;2023-02-28T14:45:26;5.57;;;2.20;;
70899;SDS011;67902;52.154;5.430;2023-02-28T14:47:57;6.97;;;2.38;;
70899;SDS011;67902;52.154;5.430;2023-02-28T14:50:29;5.22;;;1.90;;
70899;SDS011;67902;52.154;5.430;2023-02-28T14:52:57;5.30;;;2.20;;
70899;SDS011;67902;52.154;5.430;2023-02-28T14:55:29;5.63;;;2.17;;
70899;SDS011;67902;52.154;5.430;2023-02-28T14:57:58;6.85;;;1.95;;
70899;SDS011;67902;52.154;5.430;2023-02-28T15:00:27;6.68;;;2.35;;
70899;SDS011;67902;52.154;5.430;2023-02-28T15:02:55;5.10;;;1.90;;
70899;SDS011;67902;52.154;5.430;2023-02-28T15:05:27;6.50;;;2.20;;
70899;SDS011;67902;52.154;5.430;2023-02-28T15:10:35;5.20;;;2.30;;
70899;SDS011;67902;52.154;5.430;2023-02-28T15:13:21;6.45;;;2.55;;
70899;SDS011;67902;52.154;5.430;2023-02-28T15:20:58;8.10;;;2.63;;
70899;SDS011;67902;52.154;5.430;2023-02-28T15:23:29;5.78;;;2.00;;
70899;SDS011;67902;52.154;5.430;2023-02-28T15:25:57;6.50;;;2.20;;
70899;SDS011;67902;52.154;5.430;2023-02-28T15:28:24;5.18;;;2.15;;
70899;SDS011;67902;52.154;5.430;2023-02-28T15:31:00;5.70;;;2.22;;
70899;SDS011;67902;52.154;5.430;2023-02-28T15:33:30;5.65;;;2.53;;
70899;SDS011;67902;52.154;5.430;2023-02-28T15:36:12;5.85;;;2.53;;
70899;SDS011;67902;52.154;5.430;2023-02-28T15:38:41;6.90;;;3.63;;
70899;SDS011;67902;52.154;5.430;2023-02-28T15:41:20;6.03;;;2.40;;
70899;SDS011;67902;52.154;5.430;2023-02-28T15:43:49;7.90;;;4.15;;
70899;SDS011;67902;52.154;5.430;2023-02-28T15:46:54;8.90;;;5.32;;
70899;SDS011;67902;52.154;5.430;2023-02-28T15:49:29;7.47;;;4.20;;
70899;SDS011;67902;52.154;5.430;2023-02-28T15:52:12;7.00;;;3.47;;
70899;SDS011;67902;52.154;5.430;2023-02-28T15:54:42;7.13;;;3.75;;
70899;SDS011;67902;52.154;5.430;2023-02-28T15:57:13;5.95;;;2.63;;
70899;SDS011;67902;52.154;5.430;2023-02-28T15:59:51;7.53;;;2.55;;
70899;SDS011;67902;52.154;5.430;2023-02-28T16:02:22;7.25;;;2.25;;
70899;SDS011;67902;52.154;5.430;2023-02-28T16:07:34;5.95;;;2.25;;
70899;SDS011;67902;52.154;5.430;2023-02-28T16:10:01;6.18;;;2.40;;
70899;SDS011;67902;52.154;5.430;2023-02-28T16:12:29;5.60;;;2.50;;
70899;SDS011;67902;52.154;5.430;2023-02-28T16:14:58;8.75;;;3.17;;
70899;SDS011;67902;52.154;5.430;2023-02-28T16:17:29;6.78;;;2.78;;
70899;SDS011;67902;52.154;5.430;2023-02-28T16:19:59;7.80;;;2.67;;
70899;SDS011;67902;52.154;5.430;2023-02-28T16:22:26;5.80;;;2.67;;
70899;SDS011;67902;52.154;5.430;2023-02-28T16:24:52;6.78;;;2.40;;
70899;SDS011;67902;52.154;5.430;2023-02-28T16:27:25;6.25;;;2.60;;
70899;SDS011;67902;52.154;5.430;2023-02-28T16:29:57;6.57;;;2.40;;
70899;SDS011;67902;52.154;5.430;2023-02-28T16:32:23;18.17;;;5.40;;
70899;SDS011;67902;52.154;5.430;2023-02-28T16:34:50;10.43;;;4.78;;
70899;SDS011;67902;52.154;5.430;2023-02-28T16:37:17;11.23;;;4.95;;
70899;SDS011;67902;52.154;5.430;2023-02-28T16:39:44;7.55;;;3.45;;
70899;SDS011;67902;52.154;5.430;2023-02-28T16:42:16;7.95;;;4.00;;
70899;SDS011;67902;52.154;5.430;2023-02-28T16:44:54;13.93;;;7.22;;
70899;SDS011;67902;52.154;5.430;2023-02-28T16:47:21;9.63;;;4.03;;
70899;SDS011;67902;52.154;5.430;2023-02-28T16:49:48;9.50;;;4.03;;
70899;SDS011;67902;52.154;5.430;2023-02-28T16:52:14;10.10;;;4.63;;
70899;SDS011;67902;52.154;5.430;2023-02-28T16:54:41;9.85;;;5.00;;
70899;SDS011;67902;52.154;5.430;2023-02-28T16:57:17;11.32;;;5.43;;
70899;SDS011;67902;52.154;5.430;2023-02-28T16:59:48;9.95;;;4.50;;
70899;SDS011;67902;52.154;5.430;2023-02-28T17:02:17;7.53;;;3.20;;
70899;SDS011;67902;52.154;5.430;2023-02-28T17:04:45;8.20;;;3.13;;
70899;SDS011;67902;52.154;5.430;2023-02-28T17:07:12;6.95;;;2.70;;
70899;SDS011;67902;52.154;5.430;2023-02-28T17:09:42;6.57;;;2.60;;
70899;SDS011;67902;52.154;5.430;2023-02-28T17:12:11;6.53;;;2.67;;